Time;durP1;ratioP1;P1;durP2;ratioP2;P2;SDS_P1;SDS_P2;PMS_P1;PMS_P2;Temp;Humidity;BMP_temperature;BMP_pressure;BME280_temperature;BME280_humidity;BME280_pressure;Samples;Min_cycle;Max_cycle;Signal;HPM_P1;HPM_P2
2022/12/15 00:40:41;;;;;;;11.23;6.73;;;;;;;3.12;nan;-23903.28;5032688;28;20198;-83
2022/12/15 00:43:10;;;;;;;10.67;5.70;;;;;;;3.32;nan;-23909.00;5032819;28;20182;-80
2022/12/15 00:48:20;;;;;;;8.53;5.73;;;;;;;3.17;nan;-23904.72;5032258;28;20649;-78
2022/12/15 00:50:51;;;;;;;13.73;7.10;;;;;;;3.50;nan;-23914.13;5030516;28;20186;-84
2022/12/15 01:20:38;;;;;;;13.50;7.23;;;;;;;3.56;nan;-23915.81;5032130;28;20657;-83
2022/12/15 01:23:04;;;;;;;13.53;7.60;;;;;;;3.50;nan;-23914.13;5030852;28;20191;-83
2022/12/15 01:25:29;;;;;;;14.27;6.43;;;;;;;3.54;nan;-23915.25;5030313;28;20234;-83
2022/12/15 01:27:55;;;;;;;8.77;5.83;;;;;;;3.32;nan;-23908.84;5031513;28;20183;-82
2022/12/15 01:30:23;;;;;;;10.00;6.43;;;;;;;3.12;nan;-23903.28;5033048;28;20190;-81
2022/12/15 01:32:48;;;;;;;13.93;7.13;;;;;;;3.58;nan;-23916.25;5032882;28;20199;-79
2022/12/15 01:35:16;;;;;;;12.63;7.07;;;;;;;3.53;nan;-23914.84;5032598;28;20167;-83
2022/12/15 01:37:42;;;;;;;16.37;7.33;;;;;;;3.35;nan;-23909.84;5032880;28;20175;-82
2022/12/15 01:42:56;;;;;;;11.77;7.33;;;;;;;3.24;nan;-23906.56;5032118;28;20643;-81
2022/12/15 01:45:27;;;;;;;10.77;6.17;;;;;;;3.19;nan;-23905.28;5030496;28;20268;-77
2022/12/15 01:48:06;;;;;;;10.83;7.17;;;;;;;3.22;nan;-23906.13;5032301;28;20183;-82
2022/12/15 01:50:36;;;;;;;12.87;7.13;;;;;;;3.25;nan;-23907.00;5034171;28;20248;-80
2022/12/15 01:53:02;;;;;;;11.83;7.03;;;;;;;3.21;nan;-23905.84;5030839;28;20226;-82
2022/12/15 01:55:29;;;;;;;15.20;7.30;;;;;;;2.86;nan;-23895.88;5031885;28;20556;-80
2022/12/15 01:57:59;;;;;;;15.50;7.40;;;;;;;3.10;nan;-23902.84;5031748;28;20233;-82
2022/12/15 02:00:25;;;;;;;11.37;8.20;;;;;;;2.99;nan;-23899.56;5012122;28;20203;-82
2022/12/15 02:02:51;;;;;;;17.70;7.93;;;;;;;2.89;nan;-23896.72;5023410;28;20598;-79
2022/12/15 02:05:17;;;;;;;13.97;7.17;;;;;;;3.09;nan;-23902.44;5031076;28;20193;-80
2022/12/15 02:07:43;;;;;;;19.97;9.50;;;;;;;2.96;nan;-23898.72;5029803;28;20187;-77
2022/12/15 02:10:10;;;;;;;14.60;7.90;;;;;;;2.87;nan;-23896.16;5031537;28;20194;-80
2022/12/15 02:12:47;;;;;;;17.53;8.33;;;;;;;2.66;nan;-23890.31;5035275;28;20203;-81
2022/12/15 02:15:26;;;;;;;13.03;7.53;;;;;;;3.02;nan;-23900.56;5035073;28;20195;-81
2022/12/15 02:18:18;;;;;;;11.50;7.47;;;;;;;2.91;nan;-23897.28;5033672;28;20175;-82
2022/12/15 02:21:13;;;;;;;11.57;7.30;;;;;;;3.01;nan;-23900.28;5033572;28;20168;-77
2022/12/15 02:24:06;;;;;;;15.73;8.00;;;;;;;3.07;nan;-23902.00;5033509;28;20179;-83
2022/12/15 02:26:56;;;;;;;15.13;7.17;;;;;;;3.15;nan;-23904.13;5039960;28;20187;-80
2022/12/15 02:29:39;;;;;;;16.73;7.57;;;;;;;3.13;nan;-23903.56;5034418;28;20199;-79
2022/12/15 02:32:24;;;;;;;13.20;6.77;;;;;;;2.98;nan;-23899.44;5033326;28;20210;-83
2022/12/15 02:35:04;;;;;;;20.17;8.33;;;;;;;2.78;nan;-23893.59;5033160;28;20190;-80
2022/12/15 02:37:38;;;;;;;13.23;6.13;;;;;;;2.99;nan;-23899.56;5033456;28;20290;-80
2022/12/15 02:40:06;;;;;;;13.83;8.23;;;;;;;3.03;nan;-23900.72;5034506;28;20170;-82
2022/12/15 02:42:35;;;;;;;14.47;8.53;;;;;;;2.98;nan;-23899.28;5034530;28;20186;-80
2022/12/15 02:45:08;;;;;;;14.30;7.87;;;;;;;3.20;nan;-23905.56;5034917;28;20701;-83
2022/12/15 02:47:44;;;;;;;14.50;7.67;;;;;;;2.94;nan;-23898.16;5034678;28;20237;-85
2022/12/15 02:50:32;;;;;;;14.03;8.03;;;;;;;2.74;nan;-23892.44;5032129;28;20274;-83
2022/12/15 02:52:57;;;;;;;11.03;6.87;;;;;;;2.70;nan;-23891.31;5034238;28;20348;-78
2022/12/15 02:55:41;;;;;;;13.57;8.10;;;;;;;2.71;nan;-23891.59;5033515;28;20273;-82
2022/12/15 02:58:42;;;;;;;10.13;5.60;;;;;;;2.67;nan;-23890.59;5034954;28;20174;-80
2022/12/15 03:01:30;;;;;;;11.37;7.00;;;;;;;2.51;nan;-23886.16;5033613;28;20201;-80
2022/12/15 03:03:58;;;;;;;8.43;5.57;;;;;;;2.88;nan;-23896.44;5038013;28;20296;-81
2022/12/15 03:06:25;;;;;;;10.67;6.33;;;;;;;2.78;nan;-23893.59;5034494;28;20175;-83
2022/12/15 03:08:51;;;;;;;10.53;6.43;;;;;;;2.36;nan;-23881.88;5033350;28;20221;-80
2022/12/15 03:11:16;;;;;;;10.73;6.27;;;;;;;1.14;nan;-23847.31;5034502;28;20231;-82
2022/12/15 03:13:41;;;;;;;11.40;6.57;;;;;;;2.73;nan;-23892.31;5033036;28;20556;-85
2022/12/15 03:16:07;;;;;;;14.53;6.77;;;;;;;2.38;nan;-23882.44;5034736;28;20199;-83
2022/12/15 03:18:33;;;;;;;12.70;6.37;;;;;;;2.77;nan;-23893.44;5034973;28;20183;-79
2022/12/15 03:20:58;;;;;;;10.00;5.87;;;;;;;2.63;nan;-23889.59;5032834;28;20614;-80
2022/12/15 03:23:24;;;;;;;14.50;6.77;;;;;;;-2.08;nan;-23756.16;5033224;28;20172;-83
2022/12/15 03:25:49;;;;;;;14.17;7.13;;;;;;;2.69;nan;-23891.16;5034659;28;20175;-76
2022/12/15 03:28:15;;;;;;;13.87;6.60;;;;;;;2.56;nan;-23887.59;5032310;28;20182;-78
2022/12/15 03:30:40;;;;;;;8.77;5.57;;;;;;;2.86;nan;-23895.88;5033605;28;20171;-80
2022/12/15 03:33:06;;;;;;;14.90;6.63;;;;;;;2.97;nan;-23899.00;5034560;28;20228;-84
2022/12/15 03:35:32;;;;;;;24.90;7.60;;;;;;;2.77;nan;-23893.31;5036311;28;20175;-81
2022/12/15 03:37:58;;;;;;;13.23;6.47;;;;;;;2.85;nan;-23895.59;5035330;28;20205;-85
2022/12/15 03:40:23;;;;;;;9.70;6.50;;;;;;;2.95;nan;-23898.44;5036189;28;20236;-81
2022/12/15 03:42:49;;;;;;;13.30;6.40;;;;;;;2.86;nan;-23895.88;5034124;28;20321;-84
2022/12/15 03:45:16;;;;;;;10.67;5.73;;;;;;;3.11;nan;-23903.00;5032486;28;20229;-78
2022/12/15 03:47:43;;;;;;;10.57;6.07;;;;;;;3.10;nan;-23902.72;5034049;28;20201;-81
2022/12/15 03:50:09;;;;;;;8.53;4.93;;;;;;;3.07;nan;-23902.00;5032572;28;20182;-78
2022/12/15 03:52:35;;;;;;;6.30;5.13;;;;;;;3.02;nan;-23900.44;5033752;28;20199;-83
2022/12/15 03:55:01;;;;;;;11.00;6.40;;;;;;;2.89;nan;-23896.88;5029630;28;20179;-80
2022/12/15 03:57:26;;;;;;;18.87;7.23;;;;;;;2.98;nan;-23899.44;5034711;28;20191;-79
2022/12/15 03:59:52;;;;;;;12.67;6.50;;;;;;;2.99;nan;-23899.56;5036322;28;20332;-83
2022/12/15 04:02:17;;;;;;;13.63;7.20;;;;;;;3.12;nan;-23903.28;5034804;28;20182;-79
2022/12/15 04:04:43;;;;;;;12.17;6.60;;;;;;;3.13;nan;-23903.56;5035139;28;20271;-78
2022/12/15 04:07:08;;;;;;;17.67;6.40;;;;;;;3.05;nan;-23901.44;5036193;28;20183;-84
2022/12/15 04:09:35;;;;;;;10.53;5.50;;;;;;;2.88;nan;-23896.44;5050171;28;20188;-81
2022/12/15 04:12:02;;;;;;;14.67;6.57;;;;;;;3.04;nan;-23901.16;5036125;28;20212;-82
2022/12/15 04:14:30;;;;;;;10.30;6.10;;;;;;;3.08;nan;-23902.16;5036529;28;20231;-83
2022/12/15 04:16:56;;;;;;;10.47;6.23;;;;;;;2.94;nan;-23898.28;5035136;28;20190;-77
2022/12/15 04:22:06;;;;;;;12.10;6.33;;;;;;;3.09;nan;-23902.56;5034807;28;20186;-78
2022/12/15 05:32:53;;;;;;;13.20;7.50;;;;;;;3.63;nan;-23917.53;5032654;28;20775;-79
2022/12/15 05:35:21;;;;;;;12.33;6.43;;;;;;;3.41;nan;-23911.41;5029321;28;20179;-82
2022/12/15 05:37:46;;;;;;;11.07;6.63;;;;;;;3.46;nan;-23912.84;5032056;28;20163;-83
2022/12/15 05:40:12;;;;;;;9.93;5.47;;;;;;;3.58;nan;-23916.13;5031732;28;20254;-83
2022/12/15 05:42:37;;;;;;;6.90;5.70;;;;;;;3.45;nan;-23912.69;5031494;28;20163;-81
2022/12/15 05:45:04;;;;;;;12.30;7.03;;;;;;;3.20;nan;-23905.41;5030818;28;20296;-77
2022/12/15 05:47:29;;;;;;;10.73;6.60;;;;;;;3.09;nan;-23902.44;5034745;28;20689;-83
2022/12/15 05:49:55;;;;;;;10.70;7.07;;;;;;;3.03;nan;-23900.72;5035767;28;20293;-81
2022/12/15 05:52:21;;;;;;;18.77;7.60;;;;;;;3.36;nan;-23910.00;5034591;28;20236;-83
2022/12/15 05:54:46;;;;;;;12.70;7.40;;;;;;;3.28;nan;-23907.84;5034456;28;20544;-83
2022/12/15 05:57:11;;;;;;;12.27;5.90;;;;;;;3.49;nan;-23913.84;5034425;28;20631;-85
2022/12/15 05:59:37;;;;;;;9.70;6.40;;;;;;;3.60;nan;-23916.69;5034041;28;20179;-81
2022/12/15 06:02:02;;;;;;;13.50;6.30;;;;;;;3.75;nan;-23920.97;5035426;28;20175;-83
2022/12/15 06:04:28;;;;;;;9.27;5.87;;;;;;;3.69;nan;-23919.25;5035651;28;20593;-82
2022/12/15 06:06:53;;;;;;;12.23;6.93;;;;;;;3.77;nan;-23921.53;5034818;28;20187;-80
2022/12/15 06:09:18;;;;;;;12.30;6.43;;;;;;;3.54;nan;-23915.13;5037433;28;20225;-82
2022/12/15 06:11:44;;;;;;;11.23;6.37;;;;;;;3.31;nan;-23908.72;5038360;28;20203;-81
2022/12/15 06:14:09;;;;;;;10.60;6.30;;;;;;;3.78;nan;-23921.81;5035607;28;20183;-83
2022/12/15 06:16:35;;;;;;;9.77;5.07;;;;;;;3.54;nan;-23915.13;5034991;28;20183;-88
2022/12/15 06:19:01;;;;;;;9.37;6.80;;;;;;;3.63;nan;-23917.69;5034533;28;20187;-87
2022/12/15 06:21:29;;;;;;;10.13;6.33;;;;;;;3.59;nan;-23916.53;5034857;28;20569;-89
2022/12/15 06:23:56;;;;;;;11.97;6.57;;;;;;;2.92;nan;-23897.72;5036520;28;20180;-89
2022/12/15 06:26:27;;;;;;;12.13;6.10;;;;;;;3.78;nan;-23921.81;5036705;28;20172;-82
2022/12/15 06:28:55;;;;;;;15.80;7.07;;;;;;;3.48;nan;-23913.56;5037479;28;20183;-79
2022/12/15 06:31:21;;;;;;;12.30;6.43;;;;;;;3.65;nan;-23918.13;5038901;28;20202;-83
2022/12/15 06:33:49;;;;;;;9.30;6.60;;;;;;;3.95;nan;-23926.66;5034691;28;20175;-88
2022/12/15 06:36:16;;;;;;;9.53;5.93;;;;;;;3.83;nan;-23923.25;5034164;28;20171;-82
2022/12/15 06:38:44;;;;;;;12.53;7.33;;;;;;;3.88;nan;-23924.81;5033821;28;20182;-85
2022/12/15 06:41:13;;;;;;;14.60;7.73;;;;;;;3.94;nan;-23926.38;5034344;28;20557;-85
2022/12/15 06:43:39;;;;;;;11.17;5.30;;;;;;;3.79;nan;-23922.09;5034123;28;20251;-82
2022/12/15 06:46:04;;;;;;;10.60;6.50;;;;;;;4.04;nan;-23929.22;5033740;28;20633;-85
2022/12/15 06:48:30;;;;;;;8.20;5.03;;;;;;;4.15;nan;-23932.34;5034174;28;20258;-82
2022/12/15 06:51:00;;;;;;;10.57;5.53;;;;;;;4.22;nan;-23934.34;5033480;28;20643;-81
2022/12/15 06:53:26;;;;;;;11.80;6.43;;;;;;;4.29;nan;-23936.19;5033557;28;20175;-83
2022/12/15 06:55:51;;;;;;;12.53;7.10;;;;;;;4.13;nan;-23931.78;5033633;28;20180;-85
2022/12/15 06:58:17;;;;;;;9.17;6.50;;;;;;;4.46;nan;-23941.03;5033814;28;20267;-87
2022/12/15 07:00:44;;;;;;;9.03;5.43;;;;;;;4.54;nan;-23943.31;5035394;28;20180;-82
2022/12/15 07:03:14;;;;;;;10.20;6.33;;;;;;;4.52;nan;-23942.59;5035198;28;20219;-87
2022/12/15 07:05:39;;;;;;;8.47;5.83;;;;;;;4.45;nan;-23940.91;5032422;28;20175;-83
2022/12/15 07:08:05;;;;;;;14.67;6.33;;;;;;;4.76;nan;-23949.44;5032414;28;20606;-80
2022/12/15 07:10:30;;;;;;;12.77;5.83;;;;;;;4.65;nan;-23946.31;5032499;28;20187;-82
2022/12/15 07:12:56;;;;;;;8.90;5.60;;;;;;;4.83;nan;-23951.44;5033947;28;20332;-85
2022/12/15 07:15:22;;;;;;;11.80;6.63;;;;;;;4.78;nan;-23950.00;5033363;28;20180;-85
2022/12/15 07:17:48;;;;;;;15.27;5.63;;;;;;;4.82;nan;-23951.16;5032908;28;20179;-85
2022/12/15 07:20:13;;;;;;;7.97;5.53;;;;;;;4.78;nan;-23950.00;5032977;28;20186;-86
2022/12/15 07:22:39;;;;;;;11.80;5.77;;;;;;;4.84;nan;-23951.84;5034339;28;20211;-82
2022/12/15 07:25:06;;;;;;;10.20;5.73;;;;;;;5.26;nan;-23963.66;5032161;28;20180;-85
2022/12/15 07:27:32;;;;;;;8.27;5.90;;;;;;;5.39;nan;-23967.06;5032025;28;20537;-82
2022/12/15 07:29:57;;;;;;;11.10;6.20;;;;;;;5.76;nan;-23977.59;5033077;28;20175;-84
2022/12/15 07:32:23;;;;;;;11.10;5.80;;;;;;;5.65;nan;-23974.47;5032179;28;20211;-84
2022/12/15 07:34:48;;;;;;;15.57;5.63;;;;;;;5.57;nan;-23972.19;5032195;28;20175;-86
2022/12/15 07:37:15;;;;;;;12.80;6.13;;;;;;;6.08;nan;-23986.69;5032033;28;20698;-84
2022/12/15 07:39:40;;;;;;;13.60;6.60;;;;;;;6.41;nan;-23995.91;5031759;28;20183;-87
2022/12/15 07:42:06;;;;;;;12.20;6.40;;;;;;;6.03;nan;-23985.28;5032548;28;20714;-88
2022/12/15 07:44:31;;;;;;;9.97;4.77;;;;;;;6.62;nan;-24001.88;5030710;28;20195;-66
2022/12/15 07:46:56;;;;;;;10.73;5.70;;;;;;;6.46;nan;-23997.34;5030320;28;20211;-67
2022/12/15 07:49:22;;;;;;;16.53;7.57;;;;;;;7.05;nan;-24013.81;5031616;28;20258;-68
2022/12/15 07:51:48;;;;;;;11.63;5.93;;;;;;;6.85;nan;-24008.13;5031916;28;20276;-72
2022/12/15 07:54:14;;;;;;;13.20;5.43;;;;;;;7.34;nan;-24021.88;5030917;28;20576;-67
2022/12/15 07:56:40;;;;;;;7.40;5.27;;;;;;;7.63;nan;-24029.97;5031421;28;20191;-68
2022/12/15 07:59:06;;;;;;;10.50;5.93;;;;;;;7.22;nan;-24018.47;5031892;28;20203;-67
2022/12/15 08:01:31;;;;;;;10.77;5.03;;;;;;;7.30;nan;-24020.75;5031540;28;20198;-68
2022/12/15 08:03:57;;;;;;;11.93;5.67;;;;;;;7.72;nan;-24032.66;4991255;28;1183314;-67
2022/12/15 08:06:23;;;;;;;9.67;6.07;;;;;;;7.73;nan;-24032.94;5032788;28;20187;-66
2022/12/15 08:08:49;;;;;;;12.60;5.50;;;;;;;7.84;nan;-24035.91;5032167;28;20191;-68
2022/12/15 08:11:15;;;;;;;9.30;4.83;;;;;;;7.54;nan;-24027.56;5032892;28;20229;-67
2022/12/15 08:13:42;;;;;;;7.27;4.87;;;;;;;7.60;nan;-24029.25;5032684;28;20203;-66
2022/12/15 08:16:08;;;;;;;11.67;5.20;;;;;;;7.37;nan;-24022.72;5033008;28;20175;-67
2022/12/15 08:18:34;;;;;;;9.47;5.23;;;;;;;7.24;nan;-24019.03;5032782;28;20588;-67
2022/12/15 08:21:05;;;;;;;9.10;4.87;;;;;;;7.23;nan;-24018.75;5033221;28;20164;-66
2022/12/15 08:23:31;;;;;;;8.10;5.13;;;;;;;7.59;nan;-24028.97;5033104;28;20226;-68
2022/12/15 08:26:09;;;;;;;9.07;4.23;;;;;;;7.48;nan;-24026.00;5033065;28;20250;-68
2022/12/15 08:28:36;;;;;;;7.87;4.57;;;;;;;7.58;nan;-24028.69;5032913;28;20681;-67
2022/12/15 08:31:06;;;;;;;6.93;4.63;;;;;;;7.47;nan;-24025.56;5032717;28;20712;-70
2022/12/15 08:33:32;;;;;;;8.47;3.80;;;;;;;7.66;nan;-24030.81;5032977;28;20680;-69
2022/12/15 08:35:59;;;;;;;7.80;4.93;;;;;;;7.49;nan;-24026.13;5032413;28;20326;-67
2022/12/15 08:38:24;;;;;;;9.50;5.07;;;;;;;7.47;nan;-24025.56;5032463;28;20174;-67
2022/12/15 08:40:49;;;;;;;9.87;4.07;;;;;;;7.74;nan;-24033.06;5032504;28;20255;-67
2022/12/15 08:43:15;;;;;;;7.80;4.43;;;;;;;7.93;nan;-24038.47;5032364;28;20174;-68
2022/12/15 08:45:40;;;;;;;9.03;4.67;;;;;;;7.83;nan;-24035.78;5032647;28;20197;-66
2022/12/15 08:48:06;;;;;;;8.20;4.17;;;;;;;8.04;nan;-24041.44;5032524;28;20183;-67
2022/12/15 08:50:32;;;;;;;9.53;4.87;;;;;;;7.91;nan;-24038.03;5030777;28;20222;-68
2022/12/15 08:53:00;;;;;;;11.50;4.27;;;;;;;8.02;nan;-24040.88;5031614;28;20202;-68
2022/12/15 08:55:34;;;;;;;7.53;5.07;;;;;;;7.98;nan;-24039.88;5030206;28;20616;-67
2022/12/15 08:58:00;;;;;;;10.23;4.67;;;;;;;7.76;nan;-24033.66;5032291;28;20258;-68
2022/12/15 09:00:26;;;;;;;10.57;4.73;;;;;;;8.13;nan;-24044.00;5014797;28;20183;-67
2022/12/15 09:02:51;;;;;;;8.83;4.37;;;;;;;8.26;nan;-24047.66;5031762;28;20225;-68
2022/12/15 09:05:16;;;;;;;7.57;4.67;;;;;;;8.38;nan;-24051.06;5032015;28;20183;-68
2022/12/15 09:07:42;;;;;;;6.07;4.17;;;;;;;8.43;nan;-24052.63;5032252;28;20175;-68
2022/12/15 09:10:07;;;;;;;9.57;4.70;;;;;;;8.34;nan;-24049.94;5032359;28;20600;-68
2022/12/15 09:12:33;;;;;;;9.33;4.53;;;;;;;8.09;nan;-24043.00;5032421;28;20187;-66
2022/12/15 09:14:58;;;;;;;9.93;5.50;;;;;;;8.14;nan;-24044.28;5031964;28;20178;-68
2022/12/15 09:17:24;;;;;;;10.27;5.03;;;;;;;8.28;nan;-24048.38;5032247;28;20167;-68
2022/12/15 09:19:49;;;;;;;11.80;5.40;;;;;;;8.71;nan;-24060.41;5031962;28;20171;-68
2022/12/15 09:22:14;;;;;;;11.50;5.20;;;;;;;8.65;nan;-24058.72;5031667;28;20601;-67
2022/12/15 09:24:40;;;;;;;7.82;3.95;;;;;;;8.68;nan;-24059.41;5032121;28;20258;-68
2022/12/15 09:27:05;;;;;;;6.30;4.13;;;;;;;8.45;nan;-24053.06;5031856;28;20175;-66
2022/12/15 09:29:31;;;;;;;8.63;5.03;;;;;;;8.96;nan;-24067.34;5031427;28;20194;-68
2022/12/15 09:31:56;;;;;;;8.75;4.60;;;;;;;8.87;nan;-24064.78;5031703;28;20179;-66
2022/12/15 09:34:22;;;;;;;8.15;4.88;;;;;;;8.59;nan;-24057.00;5031791;28;20475;-67
2022/12/15 09:36:47;;;;;;;7.10;4.38;;;;;;;9.12;nan;-24071.88;5031386;28;20625;-67
2022/12/15 09:39:14;;;;;;;8.40;3.92;;;;;;;9.28;nan;-24076.25;5031536;28;20156;-67
2022/12/15 09:41:43;;;;;;;8.38;4.47;;;;;;;9.26;nan;-24075.81;5031729;28;20639;-67
2022/12/15 09:44:19;;;;;;;6.90;4.18;;;;;;;9.06;nan;-24070.16;5031768;28;20181;-67
2022/12/15 09:47:00;;;;;;;8.75;4.30;;;;;;;9.18;nan;-24073.56;5031142;28;20273;-68
2022/12/15 09:50:03;;;;;;;7.45;4.45;;;;;;;9.11;nan;-24071.59;5031478;28;20183;-67
2022/12/15 09:52:34;;;;;;;6.60;4.15;;;;;;;9.43;nan;-24080.34;5009199;28;20286;-68
2022/12/15 09:55:01;;;;;;;9.05;4.72;;;;;;;9.56;nan;-24084.03;5029544;28;20285;-66
2022/12/15 09:57:39;;;;;;;8.95;4.28;;;;;;;9.71;nan;-24088.41;5030902;28;20229;-67
2022/12/15 10:00:28;;;;;;;7.57;4.07;;;;;;;9.60;nan;-24085.16;5030827;28;20167;-66
2022/12/15 10:03:21;;;;;;;9.88;5.25;;;;;;;9.86;nan;-24092.50;5031327;28;20285;-66
2022/12/15 10:06:08;;;;;;;8.95;4.57;;;;;;;9.54;nan;-24083.59;5031650;28;20183;-67
2022/12/15 10:08:40;;;;;;;6.90;4.45;;;;;;;9.66;nan;-24086.97;5031198;28;20159;-68
2022/12/15 10:11:20;;;;;;;8.50;4.35;;;;;;;9.94;nan;-24094.75;5031190;28;20246;-67
2022/12/15 10:13:48;;;;;;;9.75;4.72;;;;;;;10.05;nan;-24097.88;5031561;28;20172;-67
2022/12/15 10:16:20;;;;;;;10.15;5.63;;;;;;;10.13;nan;-24100.13;5031728;28;20152;-68
2022/12/15 10:18:53;;;;;;;9.95;4.32;;;;;;;9.94;nan;-24094.75;5031432;28;20172;-67
2022/12/15 10:21:19;;;;;;;8.63;4.97;;;;;;;9.65;nan;-24086.56;5031266;28;20686;-67
2022/12/15 10:23:48;;;;;;;7.10;4.22;;;;;;;10.25;nan;-24103.22;5031513;28;20674;-68
2022/12/15 10:26:22;;;;;;;6.72;4.55;;;;;;;9.73;nan;-24088.81;5030338;28;20524;-67
2022/12/15 10:29:08;;;;;;;11.73;4.47;;;;;;;10.50;nan;-24110.28;5031115;28;20217;-67
2022/12/15 10:31:40;;;;;;;9.85;4.80;;;;;;;10.26;nan;-24103.66;5032276;28;20532;-66
2022/12/15 10:34:15;;;;;;;10.73;5.35;;;;;;;10.51;nan;-24110.56;5034686;28;20193;-67
2022/12/15 10:36:49;;;;;;;9.05;4.68;;;;;;;10.64;nan;-24114.38;5034164;28;20183;-67
2022/12/15 10:39:15;;;;;;;10.27;5.25;;;;;;;10.51;nan;-24110.56;5034913;28;20689;-67
2022/12/15 10:41:40;;;;;;;9.13;5.40;;;;;;;10.74;nan;-24117.06;5034553;28;20207;-69
2022/12/15 10:44:23;;;;;;;9.63;4.47;;;;;;;10.34;nan;-24105.91;5034552;28;20175;-69
2022/12/15 10:46:54;;;;;;;8.93;4.40;;;;;;;10.54;nan;-24111.56;5032929;28;20609;-66
2022/12/15 10:49:24;;;;;;;7.65;4.63;;;;;;;10.57;nan;-24112.41;5033850;28;20705;-67
2022/12/15 10:51:56;;;;;;;9.32;4.57;;;;;;;10.64;nan;-24114.38;5032480;28;20583;-68
2022/12/15 10:54:25;;;;;;;8.75;4.85;;;;;;;10.17;nan;-24101.13;5033669;28;20594;-69
2022/12/15 10:56:59;;;;;;;9.18;4.45;;;;;;;10.38;nan;-24106.91;5033598;28;20650;-67
2022/12/15 10:59:30;;;;;;;9.85;5.20;;;;;;;10.81;nan;-24119.03;5034151;28;20167;-67
2022/12/15 11:02:24;;;;;;;15.18;5.43;;;;;;;11.00;nan;-24124.25;5033623;28;20179;-66
2022/12/15 11:05:14;;;;;;;14.15;6.40;;;;;;;10.97;nan;-24123.41;5033599;28;20176;-67
2022/12/15 11:07:44;;;;;;;10.45;5.03;;;;;;;10.69;nan;-24115.50;5033283;28;20198;-67
2022/12/15 11:10:25;;;;;;;11.18;5.78;;;;;;;10.84;nan;-24119.75;5033547;28;20603;-67
2022/12/15 11:13:14;;;;;;;7.65;4.57;;;;;;;10.59;nan;-24112.81;5033334;28;20257;-67
2022/12/15 11:16:18;;;;;;;11.65;5.38;;;;;;;11.01;nan;-24124.53;5033475;28;20203;-67
2022/12/15 11:18:49;;;;;;;7.80;4.43;;;;;;;11.00;nan;-24124.41;5032154;28;20171;-82
2022/12/15 11:21:26;;;;;;;7.53;4.28;;;;;;;10.99;nan;-24124.13;5033953;28;20174;-82
2022/12/15 11:24:03;;;;;;;7.47;4.72;;;;;;;11.11;nan;-24127.22;5033801;28;20214;-78
2022/12/15 11:26:47;;;;;;;11.10;5.03;;;;;;;11.16;nan;-24128.75;5032454;28;20222;-80
2022/12/15 11:29:37;;;;;;;13.68;5.40;;;;;;;11.24;nan;-24130.88;5033763;28;20627;-79
2022/12/15 11:32:04;;;;;;;7.72;4.57;;;;;;;11.21;nan;-24130.19;5032244;28;20202;-79
2022/12/15 11:34:36;;;;;;;11.13;5.15;;;;;;;11.34;nan;-24133.69;5033862;28;20179;-81
2022/12/15 11:37:27;;;;;;;11.50;5.13;;;;;;;11.28;nan;-24132.16;5033809;28;20670;-80
2022/12/15 11:40:16;;;;;;;12.43;4.88;;;;;;;11.02;nan;-24124.97;5034074;28;20175;-80
2022/12/15 11:42:50;;;;;;;9.60;4.72;;;;;;;11.34;nan;-24133.69;5035921;28;20270;-79
2022/12/15 11:45:19;;;;;;;6.88;4.10;;;;;;;11.37;nan;-24134.69;5033289;28;20180;-77
2022/12/15 11:48:00;;;;;;;11.18;5.40;;;;;;;11.40;nan;-24135.53;5033679;28;20533;-76
2022/12/15 11:50:28;;;;;;;10.23;3.97;;;;;;;11.64;nan;-24142.16;5032193;28;20604;-78
2022/12/15 11:53:13;;;;;;;8.32;4.68;;;;;;;11.53;nan;-24139.19;5033328;28;20527;-79
2022/12/15 11:55:38;;;;;;;7.22;4.07;;;;;;;11.86;nan;-24148.22;5032292;28;20167;-78
2022/12/15 11:58:22;;;;;;;7.15;4.00;;;;;;;12.03;nan;-24153.00;5031760;28;20183;-80
2022/12/15 12:01:13;;;;;;;6.70;3.70;;;;;;;11.94;nan;-24150.47;5033552;28;20657;-79
2022/12/15 12:03:38;;;;;;;7.95;4.22;;;;;;;12.16;nan;-24156.66;5030841;28;20250;-78
2022/12/15 12:06:15;;;;;;;8.25;4.18;;;;;;;12.09;nan;-24154.69;5033244;28;20214;-76
2022/12/15 12:09:11;;;;;;;9.25;4.72;;;;;;;12.13;nan;-24155.81;5032868;28;20322;-79
2022/12/15 12:11:48;;;;;;;8.13;3.88;;;;;;;11.70;nan;-24143.69;5030432;28;20229;-79
2022/12/15 12:14:17;;;;;;;9.70;5.18;;;;;;;12.47;nan;-24165.09;5032760;28;20183;-79
2022/12/15 12:16:50;;;;;;;13.98;4.20;;;;;;;12.30;nan;-24160.47;5033013;28;20160;-75
2022/12/15 12:19:23;;;;;;;9.27;4.45;;;;;;;12.29;nan;-24160.31;5032220;28;20171;-80
2022/12/15 12:21:52;;;;;;;8.15;4.45;;;;;;;12.01;nan;-24152.44;5032065;28;20305;-79
2022/12/15 12:24:31;;;;;;;10.35;4.57;;;;;;;12.37;nan;-24162.44;5031980;28;20203;-77
2022/12/15 12:27:16;;;;;;;8.55;4.28;;;;;;;12.24;nan;-24158.78;5031146;28;20183;-76
2022/12/15 12:29:50;;;;;;;10.52;4.20;;;;;;;12.32;nan;-24161.16;5032423;28;20171;-77
2022/12/15 12:32:43;;;;;;;8.88;3.88;;;;;;;12.71;nan;-24172.00;5031111;28;20701;-77
2022/12/15 12:35:11;;;;;;;6.75;3.97;;;;;;;12.78;nan;-24173.97;5031403;28;20187;-76
2022/12/15 12:37:42;;;;;;;8.13;4.40;;;;;;;12.73;nan;-24172.41;5030697;28;20175;-79
2022/12/15 12:40:38;;;;;;;9.77;5.07;;;;;;;12.97;nan;-24179.03;5031528;28;20163;-77
2022/12/15 12:43:04;;;;;;;10.68;3.88;;;;;;;12.79;nan;-24174.25;5031885;28;20186;-76
2022/12/15 12:45:35;;;;;;;11.63;4.82;;;;;;;12.95;nan;-24178.47;5031590;28;20175;-79
2022/12/15 12:48:09;;;;;;;5.90;3.80;;;;;;;12.09;nan;-24154.53;5030429;28;20560;-82
2022/12/15 12:50:35;;;;;;;5.63;3.17;;;;;;;12.71;nan;-24171.84;5031825;28;20166;-78
2022/12/15 12:53:02;;;;;;;6.20;3.33;;;;;;;12.50;nan;-24165.94;5030207;28;20330;-82
2022/12/15 12:55:37;;;;;;;8.07;3.50;;;;;;;12.56;nan;-24167.63;5030338;28;20175;-79
2022/12/15 12:58:23;;;;;;;6.72;3.80;;;;;;;12.28;nan;-24160.03;5030516;28;20182;-80
2022/12/15 13:01:18;;;;;;;8.80;4.55;;;;;;;12.58;nan;-24168.19;5030351;28;20214;-78
2022/12/15 13:03:45;;;;;;;7.28;3.88;;;;;;;12.29;nan;-24160.19;5029920;28;20226;-81
2022/12/15 13:06:35;;;;;;;6.72;4.03;;;;;;;12.57;nan;-24167.91;5030481;28;20171;-81
2022/12/15 13:09:15;;;;;;;6.75;4.18;;;;;;;12.29;nan;-24160.31;5031686;28;20171;-78
2022/12/15 13:11:47;;;;;;;8.00;4.32;;;;;;;12.04;nan;-24153.28;5030227;28;20270;-81
2022/12/15 13:14:20;;;;;;;7.45;3.90;;;;;;;12.18;nan;-24157.09;5030656;28;20728;-78
2022/12/15 13:16:47;;;;;;;9.55;4.53;;;;;;;12.14;nan;-24156.09;5030838;28;20187;-79
2022/12/15 13:19:13;;;;;;;7.53;3.90;;;;;;;12.04;nan;-24153.13;5030698;28;20175;-79
2022/12/15 13:21:45;;;;;;;9.40;4.53;;;;;;;11.74;nan;-24144.97;5030306;28;20183;-84
2022/12/15 13:24:33;;;;;;;11.90;5.82;;;;;;;11.86;nan;-24148.22;5030215;28;20602;-80
2022/12/15 13:27:18;;;;;;;11.90;4.97;;;;;;;11.64;nan;-24142.00;5031232;28;20187;-79
2022/12/15 13:30:14;;;;;;;12.48;5.15;;;;;;;11.55;nan;-24139.47;5030966;28;20175;-79
2022/12/15 13:32:50;;;;;;;12.07;5.35;;;;;;;11.44;nan;-24136.66;5030252;28;20574;-79
2022/12/15 13:35:21;;;;;;;10.23;5.03;;;;;;;11.36;nan;-24134.41;5029857;28;20182;-80
2022/12/15 13:37:54;;;;;;;15.05;5.72;;;;;;;11.17;nan;-24129.03;5030446;28;20171;-79
2022/12/15 13:40:35;;;;;;;10.77;5.75;;;;;;;11.33;nan;-24133.56;5029976;28;20187;-81
2022/12/15 13:43:03;;;;;;;10.45;5.97;;;;;;;11.25;nan;-24131.16;5030374;28;20183;-81
2022/12/15 13:45:44;;;;;;;11.38;5.57;;;;;;;11.15;nan;-24128.34;5029859;28;20242;-79
2022/12/15 13:48:13;;;;;;;8.93;5.55;;;;;;;11.33;nan;-24133.56;5031283;28;20182;-79
2022/12/15 13:50:55;;;;;;;8.88;5.15;;;;;;;11.11;nan;-24127.22;5030224;28;20176;-80
2022/12/15 13:53:24;;;;;;;10.73;5.72;;;;;;;11.06;nan;-24125.94;5031179;28;20273;-79
2022/12/15 13:56:10;;;;;;;12.30;5.70;;;;;;;11.05;nan;-24125.66;5031312;28;20266;-80
2022/12/15 13:58:44;;;;;;;8.98;4.97;;;;;;;11.16;nan;-24128.63;5009422;28;20183;-78
2022/12/15 14:01:27;;;;;;;12.13;5.95;;;;;;;10.94;nan;-24122.56;5029943;28;20234;-77
2022/12/15 14:04:14;;;;;;;10.88;5.03;;;;;;;10.74;nan;-24116.91;5030700;28;20222;-79
2022/12/15 14:06:46;;;;;;;9.73;5.55;;;;;;;11.05;nan;-24125.81;5033738;28;20250;-80
2022/12/15 14:09:16;;;;;;;12.23;5.53;;;;;;;10.83;nan;-24119.47;5034742;28;20222;-78
2022/12/15 14:11:43;;;;;;;10.55;4.70;;;;;;;10.92;nan;-24122.13;5035007;28;20222;-80
2022/12/15 14:14:22;;;;;;;10.13;5.10;;;;;;;11.02;nan;-24124.97;5034622;28;20183;-80
2022/12/15 14:16:58;;;;;;;7.25;4.50;;;;;;;10.82;nan;-24119.31;5034008;28;20203;-78
2022/12/15 14:19:23;;;;;;;8.45;5.28;;;;;;;10.85;nan;-24120.16;5033916;28;20681;-80
2022/12/15 14:21:56;;;;;;;8.55;5.18;;;;;;;10.54;nan;-24111.56;5033819;28;20179;-77
2022/12/15 14:24:29;;;;;;;12.05;5.18;;;;;;;10.68;nan;-24115.22;5034467;28;20195;-80